sensor_id;sensor_type;location;lat;lon;timestamp;P1;durP1;ratioP1;P2;durP2;ratioP2
59930;SDS011;45790;51.538;6.736;2023-04-25T00:00:15;14.60;;;4.20;;
59930;SDS011;45790;51.538;6.736;2023-04-25T00:02:40;12.32;;;5.25;;
59930;SDS011;45790;51.538;6.736;2023-04-25T00:05:06;12.55;;;3.50;;
59930;SDS011;45790;51.538;6.736;2023-04-25T00:07:31;10.52;;;3.70;;
59930;SDS011;45790;51.538;6.736;2023-04-25T00:09:57;9.70;;;3.60;;
59930;SDS011;45790;51.538;6.736;2023-04-25T00:12:22;14.05;;;4.47;;
59930;SDS011;45790;51.538;6.736;2023-04-25T00:14:48;10.70;;;3.45;;
59930;SDS011;45790;51.538;6.736;2023-04-25T00:17:14;9.75;;;4.10;;
59930;SDS011;45790;51.538;6.736;2023-04-25T00:19:39;14.70;;;4.05;;
59930;SDS011;45790;51.538;6.736;2023-04-25T00:22:05;15.82;;;4.10;;
59930;SDS011;45790;51.538;6.736;2023-04-25T00:24:30;11.07;;;3.90;;
59930;SDS011;45790;51.538;6.736;2023-04-25T00:26:55;10.82;;;4.97;;
59930;SDS011;45790;51.538;6.736;2023-04-25T00:29:21;10.70;;;4.10;;
59930;SDS011;45790;51.538;6.736;2023-04-25T00:31:46;10.60;;;4.30;;
59930;SDS011;45790;51.538;6.736;2023-04-25T00:34:11;14.18;;;4.10;;
59930;SDS011;45790;51.538;6.736;2023-04-25T00:36:36;15.27;;;4.13;;
59930;SDS011;45790;51.538;6.736;2023-04-25T00:39:01;12.77;;;4.18;;
59930;SDS011;45790;51.538;6.736;2023-04-25T00:41:27;10.73;;;3.95;;
59930;SDS011;45790;51.538;6.736;2023-04-25T00:43:53;11.32;;;4.18;;
59930;SDS011;45790;51.538;6.736;2023-04-25T00:46:19;10.73;;;3.92;;
59930;SDS011;45790;51.538;6.736;2023-04-25T00:48:44;13.15;;;3.97;;
59930;SDS011;45790;51.538;6.736;2023-04-25T00:51:09;12.70;;;4.07;;
59930;SDS011;45790;51.538;6.736;2023-04-25T00:53:37;12.70;;;3.88;;
59930;SDS011;45790;51.538;6.736;2023-04-25T00:56:03;10.57;;;3.78;;
59930;SDS011;45790;51.538;6.736;2023-04-25T00:58:28;14.10;;;5.00;;
59930;SDS011;45790;51.538;6.736;2023-04-25T01:00:54;12.18;;;3.97;;
59930;SDS011;45790;51.538;6.736;2023-04-25T01:03:21;13.50;;;4.95;;
59930;SDS011;45790;51.538;6.736;2023-04-25T01:05:46;10.43;;;3.92;;
59930;SDS011;45790;51.538;6.736;2023-04-25T01:08:12;17.20;;;4.30;;
59930;SDS011;45790;51.538;6.736;2023-04-25T01:10:37;9.18;;;3.55;;
59930;SDS011;45790;51.538;6.736;2023-04-25T01:13:02;11.05;;;4.40;;
59930;SDS011;45790;51.538;6.736;2023-04-25T01:15:28;13.20;;;4.20;;
59930;SDS011;45790;51.538;6.736;2023-04-25T01:17:54;9.75;;;4.03;;
59930;SDS011;45790;51.538;6.736;2023-04-25T01:20:20;9.27;;;4.00;;
59930;SDS011;45790;51.538;6.736;2023-04-25T01:22:46;11.10;;;4.25;;
59930;SDS011;45790;51.538;6.736;2023-04-25T01:25:11;10.85;;;3.92;;
59930;SDS011;45790;51.538;6.736;2023-04-25T01:27:36;11.52;;;4.22;;
59930;SDS011;45790;51.538;6.736;2023-04-25T01:30:02;10.07;;;3.67;;
59930;SDS011;45790;51.538;6.736;2023-04-25T01:32:28;13.32;;;4.15;;
59930;SDS011;45790;51.538;6.736;2023-04-25T01:34:53;10.25;;;3.83;;
59930;SDS011;45790;51.538;6.736;2023-04-25T01:37:18;12.63;;;4.22;;
59930;SDS011;45790;51.538;6.736;2023-04-25T01:39:44;12.02;;;4.25;;
59930;SDS011;45790;51.538;6.736;2023-04-25T01:42:09;11.18;;;3.97;;
59930;SDS011;45790;51.538;6.736;2023-04-25T01:44:35;11.73;;;4.30;;
59930;SDS011;45790;51.538;6.736;2023-04-25T01:47:00;13.35;;;4.40;;
59930;SDS011;45790;51.538;6.736;2023-04-25T01:49:25;12.52;;;3.83;;
59930;SDS011;45790;51.538;6.736;2023-04-25T01:51:51;9.02;;;3.63;;
59930;SDS011;45790;51.538;6.736;2023-04-25T01:54:16;12.73;;;4.00;;
59930;SDS011;45790;51.538;6.736;2023-04-25T01:56:41;14.95;;;4.90;;
59930;SDS011;45790;51.538;6.736;2023-04-25T01:59:08;9.90;;;4.28;;
59930;SDS011;45790;51.538;6.736;2023-04-25T02:01:33;11.23;;;4.78;;
59930;SDS011;45790;51.538;6.736;2023-04-25T02:03:58;13.63;;;4.10;;
59930;SDS011;45790;51.538;6.736;2023-04-25T02:06:24;10.27;;;4.35;;
59930;SDS011;45790;51.538;6.736;2023-04-25T02:08:49;12.85;;;4.40;;
59930;SDS011;45790;51.538;6.736;2023-04-25T02:11:14;12.07;;;3.92;;
59930;SDS011;45790;51.538;6.736;2023-04-25T02:13:39;13.20;;;4.30;;
59930;SDS011;45790;51.538;6.736;2023-04-25T02:16:04;9.05;;;4.07;;
59930;SDS011;45790;51.538;6.736;2023-04-25T02:18:30;13.68;;;4.22;;
59930;SDS011;45790;51.538;6.736;2023-04-25T02:20:56;10.43;;;4.28;;
59930;SDS011;45790;51.538;6.736;2023-04-25T02:23:21;10.98;;;3.72;;
59930;SDS011;45790;51.538;6.736;2023-04-25T02:25:46;14.95;;;4.13;;
59930;SDS011;45790;51.538;6.736;2023-04-25T02:28:12;9.65;;;4.90;;
59930;SDS011;45790;51.538;6.736;2023-04-25T02:30:37;9.77;;;3.85;;
59930;SDS011;45790;51.538;6.736;2023-04-25T02:33:02;11.07;;;4.10;;
59930;SDS011;45790;51.538;6.736;2023-04-25T02:35:27;13.27;;;4.50;;
59930;SDS011;45790;51.538;6.736;2023-04-25T02:37:53;9.35;;;3.85;;
59930;SDS011;45790;51.538;6.736;2023-04-25T02:40:18;12.85;;;4.20;;
59930;SDS011;45790;51.538;6.736;2023-04-25T02:42:43;15.85;;;4.00;;
59930;SDS011;45790;51.538;6.736;2023-04-25T02:45:10;10.63;;;3.78;;
59930;SDS011;45790;51.538;6.736;2023-04-25T02:47:35;11.82;;;4.78;;
59930;SDS011;45790;51.538;6.736;2023-04-25T02:50:01;14.18;;;4.22;;
59930;SDS011;45790;51.538;6.736;2023-04-25T02:52:26;9.80;;;3.83;;
59930;SDS011;45790;51.538;6.736;2023-04-25T02:54:51;14.10;;;4.70;;
59930;SDS011;45790;51.538;6.736;2023-04-25T02:57:17;12.77;;;4.07;;
59930;SDS011;45790;51.538;6.736;2023-04-25T02:59:42;11.75;;;3.80;;
59930;SDS011;45790;51.538;6.736;2023-04-25T03:02:07;12.63;;;3.95;;
59930;SDS011;45790;51.538;6.736;2023-04-25T03:04:32;11.77;;;3.92;;
59930;SDS011;45790;51.538;6.736;2023-04-25T03:06:58;14.30;;;3.85;;
59930;SDS011;45790;51.538;6.736;2023-04-25T03:09:23;12.60;;;3.90;;
59930;SDS011;45790;51.538;6.736;2023-04-25T03:11:48;11.25;;;3.70;;
59930;SDS011;45790;51.538;6.736;2023-04-25T03:14:14;9.77;;;4.00;;
59930;SDS011;45790;51.538;6.736;2023-04-25T03:16:39;13.57;;;3.70;;
59930;SDS011;45790;51.538;6.736;2023-04-25T03:19:04;12.32;;;4.25;;
59930;SDS011;45790;51.538;6.736;2023-04-25T03:21:30;15.00;;;4.15;;
59930;SDS011;45790;51.538;6.736;2023-04-25T03:23:57;12.23;;;3.95;;
59930;SDS011;45790;51.538;6.736;2023-04-25T03:26:22;12.63;;;4.20;;
59930;SDS011;45790;51.538;6.736;2023-04-25T03:28:47;13.32;;;4.93;;
59930;SDS011;45790;51.538;6.736;2023-04-25T03:31:12;12.30;;;4.45;;
59930;SDS011;45790;51.538;6.736;2023-04-25T03:33:38;16.90;;;4.50;;
59930;SDS011;45790;51.538;6.736;2023-04-25T03:36:03;11.90;;;3.80;;
59930;SDS011;45790;51.538;6.736;2023-04-25T03:38:28;11.27;;;4.75;;
59930;SDS011;45790;51.538;6.736;2023-04-25T03:40:56;16.95;;;4.60;;
59930;SDS011;45790;51.538;6.736;2023-04-25T03:43:21;12.15;;;3.88;;
59930;SDS011;45790;51.538;6.736;2023-04-25T03:45:47;11.95;;;4.38;;
59930;SDS011;45790;51.538;6.736;2023-04-25T03:48:12;13.48;;;4.50;;
59930;SDS011;45790;51.538;6.736;2023-04-25T03:50:37;13.50;;;4.10;;
59930;SDS011;45790;51.538;6.736;2023-04-25T03:53:02;17.60;;;4.13;;
59930;SDS011;45790;51.538;6.736;2023-04-25T03:55:28;19.92;;;5.07;;
59930;SDS011;45790;51.538;6.736;2023-04-25T03:57:53;14.18;;;4.55;;
59930;SDS011;45790;51.538;6.736;2023-04-25T04:00:18;17.67;;;5.50;;
59930;SDS011;45790;51.538;6.736;2023-04-25T04:02:43;15.95;;;4.90;;
59930;SDS011;45790;51.538;6.736;2023-04-25T04:05:08;14.13;;;4.47;;
59930;SDS011;45790;51.538;6.736;2023-04-25T04:07:34;15.48;;;4.90;;
59930;SDS011;45790;51.538;6.736;2023-04-25T04:10:04;12.65;;;4.75;;
59930;SDS011;45790;51.538;6.736;2023-04-25T04:12:30;16.48;;;5.30;;
59930;SDS011;45790;51.538;6.736;2023-04-25T04:14:55;17.90;;;5.20;;
59930;SDS011;45790;51.538;6.736;2023-04-25T04:17:20;18.40;;;5.10;;
59930;SDS011;45790;51.538;6.736;2023-04-25T04:19:45;16.05;;;7.00;;
59930;SDS011;45790;51.538;6.736;2023-04-25T04:22:11;18.53;;;5.33;;
59930;SDS011;45790;51.538;6.736;2023-04-25T04:24:36;19.50;;;5.10;;
59930;SDS011;45790;51.538;6.736;2023-04-25T04:27:01;18.50;;;5.72;;
59930;SDS011;45790;51.538;6.736;2023-04-25T04:29:26;15.80;;;4.20;;
59930;SDS011;45790;51.538;6.736;2023-04-25T04:31:52;16.95;;;5.50;;
59930;SDS011;45790;51.538;6.736;2023-04-25T04:34:17;25.75;;;5.78;;
59930;SDS011;45790;51.538;6.736;2023-04-25T04:36:43;15.95;;;5.45;;
59930;SDS011;45790;51.538;6.736;2023-04-25T04:39:10;22.05;;;5.05;;
59930;SDS011;45790;51.538;6.736;2023-04-25T04:41:36;19.48;;;5.80;;
59930;SDS011;45790;51.538;6.736;2023-04-25T04:44:01;24.67;;;5.57;;
59930;SDS011;45790;51.538;6.736;2023-04-25T04:46:27;15.18;;;5.20;;
59930;SDS011;45790;51.538;6.736;2023-04-25T04:48:53;17.13;;;5.68;;
59930;SDS011;45790;51.538;6.736;2023-04-25T04:51:18;18.80;;;5.28;;
59930;SDS011;45790;51.538;6.736;2023-04-25T04:53:44;12.57;;;5.25;;
59930;SDS011;45790;51.538;6.736;2023-04-25T04:56:09;15.93;;;5.07;;
59930;SDS011;45790;51.538;6.736;2023-04-25T04:58:34;12.13;;;5.07;;
59930;SDS011;45790;51.538;6.736;2023-04-25T05:01:01;14.95;;;4.95;;
59930;SDS011;45790;51.538;6.736;2023-04-25T05:03:26;16.10;;;5.93;;
59930;SDS011;45790;51.538;6.736;2023-04-25T05:05:52;15.73;;;5.47;;
59930;SDS011;45790;51.538;6.736;2023-04-25T05:08:17;18.97;;;5.03;;
59930;SDS011;45790;51.538;6.736;2023-04-25T05:10:42;15.97;;;5.00;;
59930;SDS011;45790;51.538;6.736;2023-04-25T05:13:07;17.20;;;4.72;;
59930;SDS011;45790;51.538;6.736;2023-04-25T05:15:32;19.85;;;5.13;;
59930;SDS011;45790;51.538;6.736;2023-04-25T05:17:58;22.97;;;5.47;;
59930;SDS011;45790;51.538;6.736;2023-04-25T05:20:23;17.48;;;4.75;;
59930;SDS011;45790;51.538;6.736;2023-04-25T05:22:48;15.20;;;5.13;;
59930;SDS011;45790;51.538;6.736;2023-04-25T05:25:13;17.20;;;4.70;;
59930;SDS011;45790;51.538;6.736;2023-04-25T05:27:39;16.88;;;5.15;;
59930;SDS011;45790;51.538;6.736;2023-04-25T05:30:04;16.50;;;5.43;;
59930;SDS011;45790;51.538;6.736;2023-04-25T05:32:30;21.50;;;5.53;;
59930;SDS011;45790;51.538;6.736;2023-04-25T05:34:55;12.27;;;4.93;;
59930;SDS011;45790;51.538;6.736;2023-04-25T05:37:20;16.23;;;4.68;;
59930;SDS011;45790;51.538;6.736;2023-04-25T05:39:46;13.30;;;4.67;;
59930;SDS011;45790;51.538;6.736;2023-04-25T05:42:11;13.82;;;4.82;;
59930;SDS011;45790;51.538;6.736;2023-04-25T05:44:36;15.00;;;5.22;;
59930;SDS011;45790;51.538;6.736;2023-04-25T05:47:01;16.27;;;4.82;;
59930;SDS011;45790;51.538;6.736;2023-04-25T05:49:26;14.82;;;4.63;;
59930;SDS011;45790;51.538;6.736;2023-04-25T05:51:52;19.00;;;4.78;;
59930;SDS011;45790;51.538;6.736;2023-04-25T05:54:17;12.48;;;3.95;;
59930;SDS011;45790;51.538;6.736;2023-04-25T05:56:42;14.48;;;4.32;;
59930;SDS011;45790;51.538;6.736;2023-04-25T05:59:07;14.05;;;4.35;;
59930;SDS011;45790;51.538;6.736;2023-04-25T06:01:32;16.45;;;4.00;;
59930;SDS011;45790;51.538;6.736;2023-04-25T06:03:58;16.30;;;4.30;;
59930;SDS011;45790;51.538;6.736;2023-04-25T06:06:23;10.85;;;3.88;;
59930;SDS011;45790;51.538;6.736;2023-04-25T06:08:48;18.73;;;5.55;;
59930;SDS011;45790;51.538;6.736;2023-04-25T06:11:14;14.25;;;4.13;;
59930;SDS011;45790;51.538;6.736;2023-04-25T06:13:39;16.23;;;4.57;;
59930;SDS011;45790;51.538;6.736;2023-04-25T06:16:05;11.18;;;3.60;;
59930;SDS011;45790;51.538;6.736;2023-04-25T06:18:30;15.18;;;4.47;;
59930;SDS011;45790;51.538;6.736;2023-04-25T06:20:56;15.18;;;3.65;;
59930;SDS011;45790;51.538;6.736;2023-04-25T06:23:23;13.52;;;3.47;;
59930;SDS011;45790;51.538;6.736;2023-04-25T06:25:49;14.30;;;3.43;;
59930;SDS011;45790;51.538;6.736;2023-04-25T06:28:14;12.68;;;3.65;;
59930;SDS011;45790;51.538;6.736;2023-04-25T06:30:39;13.10;;;3.78;;
59930;SDS011;45790;51.538;6.736;2023-04-25T06:33:04;10.50;;;3.42;;
59930;SDS011;45790;51.538;6.736;2023-04-25T06:35:29;12.48;;;4.28;;
59930;SDS011;45790;51.538;6.736;2023-04-25T06:37:55;12.05;;;3.17;;
59930;SDS011;45790;51.538;6.736;2023-04-25T06:40:20;13.77;;;3.70;;
59930;SDS011;45790;51.538;6.736;2023-04-25T06:42:45;11.32;;;3.35;;
59930;SDS011;45790;51.538;6.736;2023-04-25T06:45:10;13.68;;;3.70;;
59930;SDS011;45790;51.538;6.736;2023-04-25T06:47:35;17.52;;;3.78;;
59930;SDS011;45790;51.538;6.736;2023-04-25T06:50:01;16.67;;;3.80;;
59930;SDS011;45790;51.538;6.736;2023-04-25T06:52:26;12.48;;;3.70;;
59930;SDS011;45790;51.538;6.736;2023-04-25T06:54:51;13.38;;;3.05;;
59930;SDS011;45790;51.538;6.736;2023-04-25T06:57:16;18.48;;;3.97;;
59930;SDS011;45790;51.538;6.736;2023-04-25T06:59:42;14.25;;;3.55;;
59930;SDS011;45790;51.538;6.736;2023-04-25T07:02:07;19.92;;;3.78;;
59930;SDS011;45790;51.538;6.736;2023-04-25T07:04:32;13.18;;;3.67;;
59930;SDS011;45790;51.538;6.736;2023-04-25T07:06:58;13.95;;;4.10;;
59930;SDS011;45790;51.538;6.736;2023-04-25T07:09:23;10.32;;;3.95;;
59930;SDS011;45790;51.538;6.736;2023-04-25T07:11:48;8.75;;;3.08;;
59930;SDS011;45790;51.538;6.736;2023-04-25T07:14:13;8.15;;;3.13;;
59930;SDS011;45790;51.538;6.736;2023-04-25T07:16:39;13.48;;;3.30;;
59930;SDS011;45790;51.538;6.736;2023-04-25T07:19:04;9.60;;;3.17;;
59930;SDS011;45790;51.538;6.736;2023-04-25T07:21:29;13.13;;;3.30;;
59930;SDS011;45790;51.538;6.736;2023-04-25T07:23:59;15.15;;;3.72;;
59930;SDS011;45790;51.538;6.736;2023-04-25T07:26:24;13.48;;;4.05;;
59930;SDS011;45790;51.538;6.736;2023-04-25T07:28:52;13.00;;;3.45;;
59930;SDS011;45790;51.538;6.736;2023-04-25T07:31:19;11.88;;;2.92;;
59930;SDS011;45790;51.538;6.736;2023-04-25T07:33:44;17.55;;;3.53;;
59930;SDS011;45790;51.538;6.736;2023-04-25T07:36:12;13.73;;;2.88;;
59930;SDS011;45790;51.538;6.736;2023-04-25T07:38:38;15.38;;;3.20;;
59930;SDS011;45790;51.538;6.736;2023-04-25T07:41:03;13.15;;;3.22;;
59930;SDS011;45790;51.538;6.736;2023-04-25T07:43:29;11.90;;;3.20;;
59930;SDS011;45790;51.538;6.736;2023-04-25T07:45:54;15.27;;;2.75;;
59930;SDS011;45790;51.538;6.736;2023-04-25T07:48:19;10.75;;;2.30;;
59930;SDS011;45790;51.538;6.736;2023-04-25T07:50:44;12.48;;;2.92;;
59930;SDS011;45790;51.538;6.736;2023-04-25T07:53:10;10.52;;;2.47;;
59930;SDS011;45790;51.538;6.736;2023-04-25T07:55:35;10.38;;;2.60;;
59930;SDS011;45790;51.538;6.736;2023-04-25T07:58:01;16.67;;;2.88;;
59930;SDS011;45790;51.538;6.736;2023-04-25T08:00:26;11.35;;;2.30;;
59930;SDS011;45790;51.538;6.736;2023-04-25T08:02:52;10.65;;;3.03;;
59930;SDS011;45790;51.538;6.736;2023-04-25T08:05:17;9.00;;;2.35;;
59930;SDS011;45790;51.538;6.736;2023-04-25T08:07:42;8.90;;;2.55;;
59930;SDS011;45790;51.538;6.736;2023-04-25T08:10:08;10.85;;;2.88;;
59930;SDS011;45790;51.538;6.736;2023-04-25T08:12:34;12.73;;;2.53;;
59930;SDS011;45790;51.538;6.736;2023-04-25T08:14:59;12.07;;;2.45;;
59930;SDS011;45790;51.538;6.736;2023-04-25T08:17:24;11.10;;;2.70;;
59930;SDS011;45790;51.538;6.736;2023-04-25T08:19:49;13.63;;;2.70;;
59930;SDS011;45790;51.538;6.736;2023-04-25T08:22:15;10.15;;;2.13;;
59930;SDS011;45790;51.538;6.736;2023-04-25T08:24:41;11.55;;;2.13;;
59930;SDS011;45790;51.538;6.736;2023-04-25T08:27:06;10.52;;;2.50;;
59930;SDS011;45790;51.538;6.736;2023-04-25T08:29:32;8.07;;;2.30;;
59930;SDS011;45790;51.538;6.736;2023-04-25T08:31:57;11.37;;;2.67;;
59930;SDS011;45790;51.538;6.736;2023-04-25T08:34:22;9.18;;;2.33;;
59930;SDS011;45790;51.538;6.736;2023-04-25T08:36:48;11.23;;;2.72;;
59930;SDS011;45790;51.538;6.736;2023-04-25T08:39:13;10.55;;;2.13;;
59930;SDS011;45790;51.538;6.736;2023-04-25T08:41:38;15.50;;;2.10;;
59930;SDS011;45790;51.538;6.736;2023-04-25T08:44:05;11.80;;;2.03;;
59930;SDS011;45790;51.538;6.736;2023-04-25T08:46:31;11.52;;;1.92;;
59930;SDS011;45790;51.538;6.736;2023-04-25T08:48:59;9.68;;;1.85;;
59930;SDS011;45790;51.538;6.736;2023-04-25T08:51:25;8.55;;;2.17;;
59930;SDS011;45790;51.538;6.736;2023-04-25T08:53:51;10.30;;;1.98;;
59930;SDS011;45790;51.538;6.736;2023-04-25T08:56:17;12.30;;;2.53;;
59930;SDS011;45790;51.538;6.736;2023-04-25T08:58:52;10.48;;;2.03;;
59930;SDS011;45790;51.538;6.736;2023-04-25T09:01:17;11.48;;;1.98;;
59930;SDS011;45790;51.538;6.736;2023-04-25T09:03:43;9.80;;;1.83;;
59930;SDS011;45790;51.538;6.736;2023-04-25T09:06:10;10.45;;;1.92;;
59930;SDS011;45790;51.538;6.736;2023-04-25T09:08:36;9.55;;;1.48;;
59930;SDS011;45790;51.538;6.736;2023-04-25T09:11:01;12.18;;;1.60;;
59930;SDS011;45790;51.538;6.736;2023-04-25T09:13:27;12.60;;;1.92;;
59930;SDS011;45790;51.538;6.736;2023-04-25T09:15:55;7.40;;;1.40;;
59930;SDS011;45790;51.538;6.736;2023-04-25T09:18:28;8.82;;;1.30;;
59930;SDS011;45790;51.538;6.736;2023-04-25T09:20:54;7.60;;;1.58;;
59930;SDS011;45790;51.538;6.736;2023-04-25T09:23:20;9.38;;;1.73;;
59930;SDS011;45790;51.538;6.736;2023-04-25T09:25:47;7.75;;;1.90;;
59930;SDS011;45790;51.538;6.736;2023-04-25T09:28:12;8.80;;;1.70;;
59930;SDS011;45790;51.538;6.736;2023-04-25T09:30:37;4.93;;;1.50;;
59930;SDS011;45790;51.538;6.736;2023-04-25T09:33:06;8.77;;;1.50;;
59930;SDS011;45790;51.538;6.736;2023-04-25T09:35:38;7.63;;;1.63;;
59930;SDS011;45790;51.538;6.736;2023-04-25T09:38:11;7.90;;;1.67;;
59930;SDS011;45790;51.538;6.736;2023-04-25T09:40:55;5.47;;;1.23;;
59930;SDS011;45790;51.538;6.736;2023-04-25T09:43:21;4.90;;;1.45;;
59930;SDS011;45790;51.538;6.736;2023-04-25T09:45:48;7.90;;;1.65;;
59930;SDS011;45790;51.538;6.736;2023-04-25T09:48:17;8.90;;;1.90;;
59930;SDS011;45790;51.538;6.736;2023-04-25T09:50:42;7.00;;;1.83;;
59930;SDS011;45790;51.538;6.736;2023-04-25T09:53:07;6.95;;;1.58;;
59930;SDS011;45790;51.538;6.736;2023-04-25T09:55:33;5.65;;;1.27;;
59930;SDS011;45790;51.538;6.736;2023-04-25T09:58:00;10.13;;;1.77;;
59930;SDS011;45790;51.538;6.736;2023-04-25T10:00:32;8.82;;;1.40;;
59930;SDS011;45790;51.538;6.736;2023-04-25T10:02:58;8.55;;;1.65;;
59930;SDS011;45790;51.538;6.736;2023-04-25T10:05:28;6.07;;;1.25;;
59930;SDS011;45790;51.538;6.736;2023-04-25T10:07:54;7.10;;;1.58;;
59930;SDS011;45790;51.538;6.736;2023-04-25T10:10:23;7.35;;;1.42;;
59930;SDS011;45790;51.538;6.736;2023-04-25T10:12:51;5.45;;;1.42;;
59930;SDS011;45790;51.538;6.736;2023-04-25T10:15:16;5.75;;;1.48;;
59930;SDS011;45790;51.538;6.736;2023-04-25T10:17:41;9.65;;;1.42;;
59930;SDS011;45790;51.538;6.736;2023-04-25T10:20:07;5.82;;;1.30;;
59930;SDS011;45790;51.538;6.736;2023-04-25T10:22:36;4.95;;;1.30;;
59930;SDS011;45790;51.538;6.736;2023-04-25T10:25:02;8.60;;;1.27;;
59930;SDS011;45790;51.538;6.736;2023-04-25T10:27:31;6.07;;;1.17;;
59930;SDS011;45790;51.538;6.736;2023-04-25T10:32:31;5.15;;;1.33;;
59930;SDS011;45790;51.538;6.736;2023-04-25T10:35:09;5.68;;;1.08;;
59930;SDS011;45790;51.538;6.736;2023-04-25T10:37:35;5.43;;;0.98;;
59930;SDS011;45790;51.538;6.736;2023-04-25T10:40:03;3.77;;;1.20;;
59930;SDS011;45790;51.538;6.736;2023-04-25T10:42:32;6.60;;;1.20;;
59930;SDS011;45790;51.538;6.736;2023-04-25T10:45:01;5.50;;;1.20;;
59930;SDS011;45790;51.538;6.736;2023-04-25T10:47:36;5.10;;;1.10;;
59930;SDS011;45790;51.538;6.736;2023-04-25T10:50:08;5.60;;;1.05;;
59930;SDS011;45790;51.538;6.736;2023-04-25T10:52:35;5.80;;;1.15;;
59930;SDS011;45790;51.538;6.736;2023-04-25T10:55:03;8.20;;;1.50;;
59930;SDS011;45790;51.538;6.736;2023-04-25T10:57:36;5.75;;;1.17;;
59930;SDS011;45790;51.538;6.736;2023-04-25T11:02:40;3.85;;;1.17;;
59930;SDS011;45790;51.538;6.736;2023-04-25T11:05:05;4.72;;;1.55;;
59930;SDS011;45790;51.538;6.736;2023-04-25T11:09:56;5.63;;;1.20;;
59930;SDS011;45790;51.538;6.736;2023-04-25T11:12:21;5.03;;;1.15;;
59930;SDS011;45790;51.538;6.736;2023-04-25T11:14:49;1.88;;;0.93;;
59930;SDS011;45790;51.538;6.736;2023-04-25T11:17:14;5.00;;;1.40;;
59930;SDS011;45790;51.538;6.736;2023-04-25T11:19:40;5.55;;;1.20;;
59930;SDS011;45790;51.538;6.736;2023-04-25T11:22:05;3.92;;;1.30;;
59930;SDS011;45790;51.538;6.736;2023-04-25T11:24:32;5.75;;;1.02;;
59930;SDS011;45790;51.538;6.736;2023-04-25T11:26:58;4.88;;;1.33;;
59930;SDS011;45790;51.538;6.736;2023-04-25T11:29:26;5.13;;;1.33;;
59930;SDS011;45790;51.538;6.736;2023-04-25T11:31:52;5.82;;;1.45;;
59930;SDS011;45790;51.538;6.736;2023-04-25T11:34:20;6.47;;;1.40;;
59930;SDS011;45790;51.538;6.736;2023-04-25T11:36:45;4.70;;;1.10;;
59930;SDS011;45790;51.538;6.736;2023-04-25T11:39:11;7.10;;;1.48;;
59930;SDS011;45790;51.538;6.736;2023-04-25T11:41:39;7.28;;;1.70;;
59930;SDS011;45790;51.538;6.736;2023-04-25T11:44:05;8.57;;;1.90;;
59930;SDS011;45790;51.538;6.736;2023-04-25T11:46:33;8.68;;;1.90;;
59930;SDS011;45790;51.538;6.736;2023-04-25T11:48:59;11.57;;;2.50;;
59930;SDS011;45790;51.538;6.736;2023-04-25T11:51:24;8.45;;;1.90;;
59930;SDS011;45790;51.538;6.736;2023-04-25T11:53:50;7.15;;;2.08;;
59930;SDS011;45790;51.538;6.736;2023-04-25T11:56:16;7.22;;;1.75;;
59930;SDS011;45790;51.538;6.736;2023-04-25T11:58:57;7.30;;;1.70;;
59930;SDS011;45790;51.538;6.736;2023-04-25T12:01:26;3.42;;;1.48;;
59930;SDS011;45790;51.538;6.736;2023-04-25T12:03:52;7.00;;;1.83;;
59930;SDS011;45790;51.538;6.736;2023-04-25T12:06:17;4.13;;;1.30;;
59930;SDS011;45790;51.538;6.736;2023-04-25T12:08:58;3.73;;;1.50;;
59930;SDS011;45790;51.538;6.736;2023-04-25T12:11:23;8.48;;;1.50;;
59930;SDS011;45790;51.538;6.736;2023-04-25T12:13:51;4.72;;;1.25;;
59930;SDS011;45790;51.538;6.736;2023-04-25T12:16:16;5.93;;;2.75;;
59930;SDS011;45790;51.538;6.736;2023-04-25T12:18:41;7.25;;;2.70;;
59930;SDS011;45790;51.538;6.736;2023-04-25T12:21:06;6.18;;;1.55;;
59930;SDS011;45790;51.538;6.736;2023-04-25T12:23:32;4.97;;;1.20;;
59930;SDS011;45790;51.538;6.736;2023-04-25T12:25:57;4.55;;;1.30;;
59930;SDS011;45790;51.538;6.736;2023-04-25T12:28:25;5.65;;;3.00;;
59930;SDS011;45790;51.538;6.736;2023-04-25T12:30:59;6.78;;;1.00;;
59930;SDS011;45790;51.538;6.736;2023-04-25T12:33:26;7.00;;;4.10;;
59930;SDS011;45790;51.538;6.736;2023-04-25T12:35:52;6.32;;;1.10;;
59930;SDS011;45790;51.538;6.736;2023-04-25T12:38:24;7.13;;;1.33;;
59930;SDS011;45790;51.538;6.736;2023-04-25T12:40:50;5.80;;;1.13;;
59930;SDS011;45790;51.538;6.736;2023-04-25T12:43:15;5.78;;;1.15;;
59930;SDS011;45790;51.538;6.736;2023-04-25T12:45:40;7.35;;;1.15;;
59930;SDS011;45790;51.538;6.736;2023-04-25T12:48:05;9.07;;;1.38;;
59930;SDS011;45790;51.538;6.736;2023-04-25T12:50:31;5.87;;;1.47;;
59930;SDS011;45790;51.538;6.736;2023-04-25T12:52:56;7.00;;;1.45;;
59930;SDS011;45790;51.538;6.736;2023-04-25T12:55:22;7.07;;;1.25;;
59930;SDS011;45790;51.538;6.736;2023-04-25T12:57:47;8.93;;;1.67;;
59930;SDS011;45790;51.538;6.736;2023-04-25T13:00:13;5.90;;;1.60;;
59930;SDS011;45790;51.538;6.736;2023-04-25T13:02:39;6.20;;;1.48;;
59930;SDS011;45790;51.538;6.736;2023-04-25T13:05:05;4.90;;;1.20;;
59930;SDS011;45790;51.538;6.736;2023-04-25T13:07:30;6.28;;;1.63;;
59930;SDS011;45790;51.538;6.736;2023-04-25T13:09:55;6.43;;;1.50;;
59930;SDS011;45790;51.538;6.736;2023-04-25T13:12:21;5.80;;;1.40;;
59930;SDS011;45790;51.538;6.736;2023-04-25T13:14:46;8.90;;;1.60;;
59930;SDS011;45790;51.538;6.736;2023-04-25T13:17:11;8.67;;;1.37;;
59930;SDS011;45790;51.538;6.736;2023-04-25T13:19:36;10.77;;;2.77;;
59930;SDS011;45790;51.538;6.736;2023-04-25T13:22:01;6.43;;;1.35;;
59930;SDS011;45790;51.538;6.736;2023-04-25T13:24:29;4.95;;;1.20;;
59930;SDS011;45790;51.538;6.736;2023-04-25T13:26:54;5.80;;;1.13;;
59930;SDS011;45790;51.538;6.736;2023-04-25T13:29:19;3.40;;;1.00;;
59930;SDS011;45790;51.538;6.736;2023-04-25T13:31:44;3.35;;;0.80;;
59930;SDS011;45790;51.538;6.736;2023-04-25T13:34:09;1.98;;;0.70;;
59930;SDS011;45790;51.538;6.736;2023-04-25T13:36:37;5.97;;;1.40;;
59930;SDS011;45790;51.538;6.736;2023-04-25T13:39:02;3.85;;;0.90;;
59930;SDS011;45790;51.538;6.736;2023-04-25T13:41:29;3.47;;;1.00;;
59930;SDS011;45790;51.538;6.736;2023-04-25T13:43:54;7.85;;;1.00;;
59930;SDS011;45790;51.538;6.736;2023-04-25T13:46:20;4.03;;;0.80;;
59930;SDS011;45790;51.538;6.736;2023-04-25T13:48:45;3.05;;;1.00;;
59930;SDS011;45790;51.538;6.736;2023-04-25T13:51:13;5.10;;;1.20;;
59930;SDS011;45790;51.538;6.736;2023-04-25T13:53:39;3.83;;;0.90;;
59930;SDS011;45790;51.538;6.736;2023-04-25T13:56:04;4.03;;;0.95;;
59930;SDS011;45790;51.538;6.736;2023-04-25T13:58:30;5.70;;;1.38;;
59930;SDS011;45790;51.538;6.736;2023-04-25T14:00:55;4.95;;;1.15;;
59930;SDS011;45790;51.538;6.736;2023-04-25T14:03:21;4.85;;;1.20;;
59930;SDS011;45790;51.538;6.736;2023-04-25T14:05:46;3.80;;;1.00;;
59930;SDS011;45790;51.538;6.736;2023-04-25T14:08:11;5.85;;;1.20;;
59930;SDS011;45790;51.538;6.736;2023-04-25T14:10:36;3.60;;;0.98;;
59930;SDS011;45790;51.538;6.736;2023-04-25T14:13:02;4.53;;;0.80;;
59930;SDS011;45790;51.538;6.736;2023-04-25T14:15:28;3.58;;;1.00;;
59930;SDS011;45790;51.538;6.736;2023-04-25T14:17:53;4.22;;;1.27;;
59930;SDS011;45790;51.538;6.736;2023-04-25T14:20:18;5.97;;;1.13;;
59930;SDS011;45790;51.538;6.736;2023-04-25T14:22:48;5.05;;;1.30;;
59930;SDS011;45790;51.538;6.736;2023-04-25T14:25:14;6.38;;;1.10;;
59930;SDS011;45790;51.538;6.736;2023-04-25T14:27:39;4.35;;;1.33;;
59930;SDS011;45790;51.538;6.736;2023-04-25T14:33:07;7.18;;;1.42;;
59930;SDS011;45790;51.538;6.736;2023-04-25T14:35:32;3.63;;;0.82;;
59930;SDS011;45790;51.538;6.736;2023-04-25T14:37:57;6.53;;;1.23;;
59930;SDS011;45790;51.538;6.736;2023-04-25T14:40:23;5.97;;;1.10;;
59930;SDS011;45790;51.538;6.736;2023-04-25T14:42:48;5.75;;;1.15;;